createdAt,value
2023-03-18T10:42:56.125Z,978.64
2023-03-18T10:43:57.254Z,978.69
2023-03-18T10:44:57.417Z,978.63
2023-03-18T10:45:57.155Z,978.64
2023-03-18T10:46:57.271Z,978.63
2023-03-18T10:47:57.280Z,978.64
2023-03-18T10:48:57.069Z,978.57
2023-03-18T10:49:57.072Z,978.59
2023-03-18T10:50:57.060Z,978.59
2023-03-18T10:51:57.043Z,978.57
2023-03-18T10:52:57.077Z,978.62
2023-03-18T10:53:57.312Z,978.60
2023-03-18T10:54:57.053Z,978.55
2023-03-18T10:55:57.627Z,978.51
2023-03-18T10:56:56.963Z,978.49
2023-03-18T10:58:17.951Z,978.48
2023-03-18T10:58:57.088Z,978.44
2023-03-18T10:59:57.007Z,978.43
2023-03-18T11:00:57.071Z,978.42
2023-03-18T11:01:56.925Z,978.49
2023-03-18T11:02:57.037Z,978.49
2023-03-18T11:03:56.888Z,978.50
2023-03-18T11:04:56.894Z,978.45
2023-03-18T11:05:56.949Z,978.44
2023-03-18T11:06:57.107Z,978.48
2023-03-18T11:07:56.903Z,978.47
2023-03-18T11:08:57.063Z,978.40
2023-03-18T11:09:56.936Z,978.38
2023-03-18T11:10:56.772Z,978.40
2023-03-18T11:11:56.862Z,978.42
2023-03-18T11:12:56.756Z,978.39
2023-03-18T11:13:56.762Z,978.43
2023-03-18T11:14:56.752Z,978.32
2023-03-18T11:15:57.045Z,978.31
2023-03-18T11:16:56.748Z,978.28
2023-03-18T11:17:56.728Z,978.24
2023-03-18T11:18:56.750Z,978.32
2023-03-18T11:19:56.650Z,978.31
2023-03-18T11:20:56.759Z,978.25
2023-03-18T11:21:56.654Z,978.20
2023-03-18T11:22:56.712Z,978.27
2023-03-18T11:23:56.604Z,978.24
2023-03-18T11:24:56.784Z,978.22
2023-03-18T11:25:56.593Z,978.19
2023-03-18T11:26:56.602Z,978.20
2023-03-18T11:27:56.564Z,978.17
2023-03-18T11:28:56.811Z,978.18
2023-03-18T11:29:56.612Z,978.16
2023-03-18T11:30:56.843Z,978.22
2023-03-18T11:31:56.580Z,978.19
2023-03-18T11:32:56.811Z,978.12
2023-03-18T11:33:56.588Z,978.14
2023-03-18T11:34:56.508Z,978.14
2023-03-18T11:35:56.671Z,978.11
2023-03-18T11:36:56.414Z,978.10
2023-03-18T11:37:56.422Z,978.09
2023-03-18T11:38:56.412Z,978.11
2023-03-18T11:39:59.135Z,978.05
2023-03-18T11:40:56.489Z,978.06
2023-03-18T11:41:56.390Z,978.14
2023-03-18T11:42:56.441Z,978.08
2023-03-18T11:43:56.607Z,978.13
2023-03-18T11:44:56.423Z,978.05
2023-03-18T11:45:56.574Z,978.04
2023-03-18T11:46:56.536Z,978.05
2023-03-18T11:47:56.263Z,978.06
2023-03-18T11:48:56.413Z,977.99
2023-03-18T11:49:56.263Z,978.02
2023-03-18T11:50:56.406Z,978.01
2023-03-18T11:51:56.247Z,977.96
2023-03-18T11:52:56.279Z,977.95
2023-03-18T11:53:56.238Z,977.91
2023-03-18T11:54:56.407Z,977.90
2023-03-18T11:55:56.269Z,977.90
2023-03-18T11:56:56.175Z,977.92
2023-03-18T11:57:56.260Z,977.89
2023-03-18T11:58:56.213Z,977.92
2023-03-18T11:59:56.289Z,977.90
2023-03-18T12:00:56.125Z,977.91
2023-03-18T12:01:56.095Z,977.86
2023-03-18T12:02:56.096Z,977.89
2023-03-18T12:03:56.085Z,977.88
2023-03-18T12:04:56.276Z,977.86
2023-03-18T12:05:56.046Z,977.81
2023-03-18T12:06:56.130Z,977.80
2023-03-18T12:07:56.044Z,977.85
2023-03-18T12:08:58.844Z,977.81
2023-03-18T12:09:56.002Z,977.84
2023-03-18T12:10:56.103Z,977.87
2023-03-18T12:11:55.949Z,977.84
2023-03-18T12:12:56.091Z,977.81
2023-03-18T12:13:55.930Z,977.82
2023-03-18T12:14:55.981Z,977.80
2023-03-18T12:15:56.017Z,977.77
2023-03-18T12:16:55.953Z,977.81
2023-03-18T12:17:55.936Z,977.81
2023-03-18T12:18:56.097Z,977.82
2023-03-18T12:19:55.845Z,977.79
2023-03-18T12:20:55.866Z,977.75
2023-03-18T12:21:55.811Z,977.75
2023-03-18T12:22:55.822Z,977.74
2023-03-18T12:23:55.796Z,977.77
2023-03-18T12:24:55.851Z,977.78
2023-03-18T12:25:55.771Z,977.75
2023-03-18T12:26:55.783Z,977.77
2023-03-18T12:27:55.951Z,977.77
2023-03-18T12:28:55.910Z,977.74
2023-03-18T12:29:55.707Z,977.71
2023-03-18T12:30:55.857Z,977.67
2023-03-18T12:31:56.012Z,977.70
2023-03-18T12:32:55.713Z,977.64
2023-03-18T12:33:55.666Z,977.63
2023-03-18T12:34:55.731Z,977.66
2023-03-18T12:35:55.633Z,977.65
2023-03-18T12:36:55.870Z,977.65
2023-03-18T12:37:55.623Z,977.66
2023-03-18T12:38:55.813Z,977.64
2023-03-18T12:39:55.625Z,977.66
2023-03-18T12:40:55.898Z,977.65
2023-03-18T12:41:55.642Z,977.61
2023-03-18T12:42:55.584Z,977.63
2023-03-18T12:43:55.617Z,977.63
2023-03-18T12:44:55.540Z,977.63
2023-03-18T12:45:55.628Z,977.63
2023-03-18T12:46:55.609Z,977.61
2023-03-18T12:47:55.467Z,977.62
2023-03-18T12:48:55.469Z,977.58
2023-03-18T12:49:55.474Z,977.59
2023-03-18T12:50:55.468Z,977.60
2023-03-18T12:51:55.392Z,977.56
2023-03-18T12:52:55.594Z,977.56
2023-03-18T12:53:55.646Z,977.52
2023-03-18T12:54:55.428Z,977.54
2023-03-18T12:55:55.629Z,977.52
2023-03-18T12:56:55.357Z,977.53
2023-03-18T12:57:55.327Z,977.57
2023-03-18T12:58:55.546Z,977.55
2023-03-18T12:59:55.312Z,977.55
2023-03-18T13:00:55.553Z,977.54
2023-03-18T13:01:55.369Z,977.54
2023-03-18T13:02:55.387Z,977.54
2023-03-18T13:03:55.321Z,977.60
2023-03-18T13:04:55.547Z,977.58
2023-03-18T13:05:55.287Z,977.57
2023-03-18T13:06:55.247Z,977.59
2023-03-18T13:07:55.319Z,977.55
2023-03-18T13:08:55.190Z,977.53
2023-03-18T13:09:56.143Z,977.52
2023-03-18T13:10:55.258Z,977.53
2023-03-18T13:11:55.164Z,977.58
2023-03-18T13:12:55.120Z,977.54
2023-03-18T13:13:55.450Z,977.49
2023-03-18T13:14:55.222Z,977.49
2023-03-18T13:15:55.145Z,977.50
2023-03-18T13:16:55.298Z,977.52
2023-03-18T13:17:55.100Z,977.50
2023-03-18T13:18:55.164Z,977.53
2023-03-18T13:19:55.027Z,977.53
2023-03-18T13:20:55.147Z,977.49
2023-03-18T13:21:55.096Z,977.55
2023-03-18T13:22:55.028Z,977.51
2023-03-18T13:23:55.026Z,977.50
2023-03-18T13:24:55.138Z,977.48
2023-03-18T13:25:54.987Z,977.52
2023-03-18T13:26:54.962Z,977.51
2023-03-18T13:27:54.996Z,977.46
2023-03-18T13:28:54.893Z,977.48
2023-03-18T13:29:55.011Z,977.50
2023-03-18T13:30:54.970Z,977.48
2023-03-18T13:31:54.857Z,977.50
2023-03-18T13:32:54.871Z,977.48
2023-03-18T13:33:54.914Z,977.42
2023-03-18T13:34:54.822Z,977.47
2023-03-18T13:35:55.102Z,977.42
2023-03-18T13:36:54.874Z,977.48
2023-03-18T13:37:54.824Z,977.44
2023-03-18T13:38:54.820Z,977.42
2023-03-18T13:39:54.796Z,977.40
2023-03-18T13:40:54.803Z,977.40
2023-03-18T13:41:54.768Z,977.39
2023-03-18T13:42:54.846Z,977.36
2023-03-18T13:43:54.731Z,977.42
2023-03-18T13:44:54.840Z,977.34
2023-03-18T13:45:54.957Z,977.37
2023-03-18T13:46:54.685Z,977.31
2023-03-18T13:47:54.689Z,977.32
2023-03-18T13:48:54.676Z,977.30
2023-03-18T13:49:54.702Z,977.31
2023-03-18T13:50:54.815Z,977.27
2023-03-18T13:51:55.136Z,977.25
2023-03-18T13:52:54.598Z,977.26
2023-03-18T13:53:54.676Z,977.19
2023-03-18T13:54:54.802Z,977.18
2023-03-18T13:55:54.667Z,977.23
2023-03-18T13:56:54.516Z,977.18
2023-03-18T13:57:54.608Z,977.21
2023-03-18T13:58:54.526Z,977.20
2023-03-18T13:59:54.662Z,977.21
2023-03-18T14:00:54.526Z,977.24
2023-03-18T14:01:54.769Z,977.23
2023-03-18T14:02:54.599Z,977.17
2023-03-18T14:03:54.529Z,977.19
2023-03-18T14:04:54.570Z,977.22
2023-03-18T14:05:54.439Z,977.20
2023-03-18T14:06:54.600Z,977.14
2023-03-18T14:07:54.387Z,977.19
2023-03-18T14:08:54.612Z,977.16
2023-03-18T14:09:57.078Z,977.18
2023-03-18T14:10:54.441Z,977.13
2023-03-18T14:11:54.330Z,977.15
2023-03-18T14:12:54.504Z,977.11
2023-03-18T14:13:54.357Z,977.05
2023-03-18T14:14:54.681Z,977.06
2023-03-18T14:15:54.390Z,977.04
2023-03-18T14:16:54.476Z,977.05
2023-03-18T14:17:54.352Z,976.96
2023-03-18T14:18:54.251Z,977.03
2023-03-18T14:19:54.364Z,976.91
2023-03-18T14:20:54.502Z,976.94
2023-03-18T14:21:54.362Z,976.94
2023-03-18T14:22:54.154Z,976.91
2023-03-18T14:23:54.398Z,976.85
2023-03-18T14:24:54.222Z,976.92
2023-03-18T14:25:54.347Z,976.89
2023-03-18T14:26:54.499Z,976.88
2023-03-18T14:27:54.350Z,976.78
2023-03-18T14:28:54.189Z,976.78
2023-03-18T14:29:54.358Z,976.78
2023-03-18T14:30:55.363Z,976.75
2023-03-18T14:31:54.984Z,976.76
2023-03-18T14:32:54.438Z,976.73
2023-03-18T14:33:54.704Z,976.73
2023-03-18T14:34:54.016Z,976.81
2023-03-18T14:35:54.149Z,976.76
2023-03-18T14:36:54.047Z,976.73
2023-03-18T14:37:54.109Z,976.80
2023-03-18T14:38:54.109Z,976.75
2023-03-18T14:39:54.114Z,976.77
2023-03-18T14:40:54.296Z,976.75
2023-03-18T14:41:54.040Z,976.80
2023-03-18T14:42:54.202Z,976.75
2023-03-18T14:43:54.055Z,976.67
2023-03-18T14:44:54.168Z,976.70
2023-03-18T14:45:54.040Z,976.69
2023-03-18T14:46:53.962Z,976.72
2023-03-18T14:47:53.842Z,976.66
2023-03-18T14:48:53.848Z,976.65
2023-03-18T14:49:53.811Z,976.65
2023-03-18T14:50:54.324Z,976.67
2023-03-18T14:51:54.025Z,976.67
2023-03-18T14:52:53.864Z,976.59
2023-03-18T14:53:54.165Z,976.63
2023-03-18T14:54:53.759Z,976.54
2023-03-18T14:55:56.552Z,976.56
2023-03-18T14:56:53.868Z,976.48
2023-03-18T14:57:53.730Z,976.54
2023-03-18T14:58:53.690Z,976.48
2023-03-18T14:59:54.938Z,976.52
2023-03-18T15:00:53.679Z,976.50
2023-03-18T15:01:53.796Z,976.51
2023-03-18T15:02:53.766Z,976.45
2023-03-18T15:03:53.748Z,976.45
2023-03-18T15:04:53.583Z,976.46
2023-03-18T15:05:53.686Z,976.46
2023-03-18T15:06:53.592Z,976.48
2023-03-18T15:07:53.691Z,976.46
2023-03-18T15:08:53.631Z,976.46
2023-03-18T15:09:53.694Z,976.45
2023-03-18T15:10:53.504Z,976.44
2023-03-18T15:11:53.529Z,976.44
2023-03-18T15:12:53.519Z,976.38
2023-03-18T15:13:53.701Z,976.33
2023-03-18T15:14:53.541Z,976.41
2023-03-18T15:15:53.552Z,976.37
2023-03-18T15:16:53.569Z,976.38
2023-03-18T15:17:53.433Z,976.40
2023-03-18T15:18:53.570Z,976.31
2023-03-18T15:19:53.675Z,976.35
2023-03-18T15:20:53.444Z,976.30
2023-03-18T15:21:53.411Z,976.33
2023-03-18T15:22:53.334Z,976.33
2023-03-18T15:23:53.382Z,976.31
2023-03-18T15:24:53.580Z,976.32
2023-03-18T15:25:53.376Z,976.33
2023-03-18T15:26:53.367Z,976.32
2023-03-18T15:27:53.386Z,976.31
2023-03-18T15:28:53.313Z,976.26
2023-03-18T15:29:53.396Z,976.28
2023-03-18T15:30:53.261Z,976.32
2023-03-18T15:31:53.634Z,976.26
2023-03-18T15:32:53.299Z,976.28
2023-03-18T15:33:53.212Z,976.29
2023-03-18T15:34:53.237Z,976.30
2023-03-18T15:35:53.219Z,976.26
2023-03-18T15:36:53.367Z,976.26
2023-03-18T15:37:53.148Z,976.28
2023-03-18T15:38:53.137Z,976.27
2023-03-18T15:39:53.129Z,976.26
2023-03-18T15:40:53.228Z,976.26
2023-03-18T15:41:53.387Z,976.26
2023-03-18T15:42:53.305Z,976.33
2023-03-18T15:43:53.074Z,976.33
2023-03-18T15:44:53.056Z,976.31
2023-03-18T15:45:53.226Z,976.36
2023-03-18T15:46:53.212Z,976.29
2023-03-18T15:47:53.052Z,976.36
2023-03-18T15:48:53.342Z,976.35
2023-03-18T15:49:52.971Z,976.36
2023-03-18T15:50:52.992Z,976.34
2023-03-18T15:51:53.050Z,976.31
2023-03-18T15:52:52.940Z,976.31
2023-03-18T15:53:53.128Z,976.30
2023-03-18T15:54:53.001Z,976.27
2023-03-18T15:55:53.084Z,976.32
2023-03-18T15:56:55.153Z,976.35
2023-03-18T15:57:53.112Z,976.34
2023-03-18T15:58:52.912Z,976.31
2023-03-18T15:59:53.066Z,976.32
2023-03-18T16:00:53.082Z,976.34
2023-03-18T16:01:52.843Z,976.37
2023-03-18T16:02:52.979Z,976.36
2023-03-18T16:03:52.833Z,976.35
2023-03-18T16:04:52.892Z,976.35
2023-03-18T16:05:52.792Z,976.34
2023-03-18T16:06:52.955Z,976.36
2023-03-18T16:07:52.763Z,976.40
2023-03-18T16:08:52.875Z,976.42
2023-03-18T16:09:52.742Z,976.34
2023-03-18T16:10:52.764Z,976.42
2023-03-18T16:11:52.724Z,976.35
2023-03-18T16:12:52.756Z,976.45
2023-03-18T16:13:52.764Z,976.39
2023-03-18T16:14:52.635Z,976.45
2023-03-18T16:15:52.776Z,976.44
2023-03-18T16:16:52.698Z,976.48
2023-03-18T16:17:52.586Z,976.45
2023-03-18T16:18:52.716Z,976.42
2023-03-18T16:19:52.723Z,976.41
2023-03-18T16:20:52.561Z,976.43
2023-03-18T16:21:52.764Z,976.48
2023-03-18T16:22:52.536Z,976.46
2023-03-18T16:23:52.539Z,976.47
2023-03-18T16:24:52.623Z,976.53
2023-03-18T16:25:52.484Z,976.53
2023-03-18T16:26:52.595Z,976.50
2023-03-18T16:27:52.583Z,976.51
2023-03-18T16:28:52.576Z,976.70
2023-03-18T16:29:52.735Z,976.55
2023-03-18T16:30:52.483Z,976.57
2023-03-18T16:31:52.498Z,976.58
2023-03-18T16:32:52.679Z,976.53
2023-03-18T16:33:52.397Z,976.56
2023-03-18T16:34:52.406Z,976.57
2023-03-18T16:35:52.442Z,976.54
2023-03-18T16:36:52.423Z,976.54
2023-03-18T16:37:52.419Z,976.55
2023-03-18T16:38:52.330Z,976.54
2023-03-18T16:39:52.400Z,976.54
2023-03-18T16:40:54.716Z,976.48
2023-03-18T16:41:52.399Z,976.62
2023-03-18T16:42:52.600Z,976.55
2023-03-18T16:43:52.432Z,976.61
2023-03-18T16:44:52.267Z,976.56
2023-03-18T16:45:52.459Z,976.66
2023-03-18T16:46:52.245Z,976.64
2023-03-18T16:47:52.415Z,976.72
2023-03-18T16:48:52.351Z,976.73
2023-03-18T16:49:52.526Z,976.65
2023-03-18T16:50:52.245Z,976.70
2023-03-18T16:51:52.193Z,976.73
2023-03-18T16:52:52.268Z,976.70
2023-03-18T16:53:52.140Z,976.68
2023-03-18T16:54:52.342Z,976.73
2023-03-18T16:55:52.460Z,976.71
2023-03-18T16:56:52.070Z,976.71
2023-03-18T16:57:52.133Z,976.71
2023-03-18T16:58:52.241Z,976.70
2023-03-18T16:59:52.109Z,976.72
2023-03-18T17:00:52.160Z,976.78
2023-03-18T17:01:52.155Z,976.74
2023-03-18T17:02:52.015Z,976.65
2023-03-18T17:03:52.178Z,976.72
2023-03-18T17:04:52.015Z,976.78
2023-03-18T17:05:52.220Z,976.67
2023-03-18T17:06:51.997Z,976.74
2023-03-18T17:07:52.096Z,976.75
2023-03-18T17:08:51.932Z,976.74
2023-03-18T17:09:51.911Z,976.75
2023-03-18T17:10:51.963Z,976.79
2023-03-18T17:11:51.874Z,976.72
2023-03-18T17:12:51.988Z,976.73
2023-03-18T17:13:51.873Z,976.75
2023-03-18T17:14:51.933Z,976.68
2023-03-18T17:15:51.847Z,976.72
2023-03-18T17:16:51.981Z,976.70
2023-03-18T17:17:51.813Z,976.69
2023-03-18T17:18:52.031Z,976.67
2023-03-18T17:19:51.775Z,976.71
2023-03-18T17:20:51.774Z,976.68
2023-03-18T17:21:51.832Z,976.65
2023-03-18T17:22:51.761Z,976.66
2023-03-18T17:23:51.688Z,976.75
2023-03-18T17:24:52.007Z,976.74
2023-03-18T17:25:51.888Z,976.74
2023-03-18T17:26:51.696Z,976.74
2023-03-18T17:27:51.793Z,976.81
2023-03-18T17:28:51.942Z,976.80
2023-03-18T17:29:51.792Z,976.73
2023-03-18T17:30:51.776Z,976.74
2023-03-18T17:31:51.791Z,976.82
2023-03-18T17:32:51.661Z,976.86
2023-03-18T17:33:51.555Z,976.79
2023-03-18T17:34:51.682Z,976.83
2023-03-18T17:35:51.821Z,976.84
2023-03-18T17:36:51.732Z,976.82
2023-03-18T17:37:51.853Z,976.87
2023-03-18T17:38:51.615Z,976.88
2023-03-18T17:39:51.780Z,976.86
2023-03-18T17:40:51.509Z,976.85
2023-03-18T17:41:51.513Z,976.81
2023-03-18T17:42:51.714Z,976.85
2023-03-18T17:43:51.469Z,976.86
2023-03-18T17:44:51.419Z,976.87
2023-03-18T17:45:51.501Z,976.92
2023-03-18T17:46:51.620Z,976.95
2023-03-18T17:47:51.465Z,976.91
2023-03-18T17:48:51.683Z,976.94
2023-03-18T17:49:51.472Z,976.96
2023-03-18T17:50:51.329Z,976.91
2023-03-18T17:51:51.464Z,976.97
2023-03-18T17:52:51.345Z,976.93
2023-03-18T17:53:51.386Z,976.93
2023-03-18T17:54:51.391Z,976.90
2023-03-18T17:55:51.537Z,976.91
2023-03-18T17:56:51.294Z,976.93
2023-03-18T17:57:51.289Z,976.94
2023-03-18T17:58:51.469Z,976.91
2023-03-18T17:59:51.344Z,976.90
2023-03-18T18:00:51.411Z,976.90
2023-03-18T18:01:51.413Z,976.90
2023-03-18T18:02:51.349Z,976.93
2023-03-18T18:03:51.308Z,976.91
2023-03-18T18:04:51.163Z,976.90
2023-03-18T18:05:51.231Z,976.83
2023-03-18T18:06:51.389Z,976.91
2023-03-18T18:07:51.139Z,976.87
2023-03-18T18:08:51.139Z,976.92
2023-03-18T18:09:51.191Z,976.99
2023-03-18T18:10:51.157Z,976.91
2023-03-18T18:11:51.473Z,976.96
2023-03-18T18:12:51.174Z,976.99
2023-03-18T18:13:51.161Z,977.01
2023-03-18T18:14:50.986Z,976.98
2023-03-18T18:15:51.356Z,977.02
2023-03-18T18:16:51.026Z,977.07
2023-03-18T18:17:51.117Z,977.05
2023-03-18T18:18:51.135Z,977.07
2023-03-18T18:19:50.939Z,977.03
2023-03-18T18:20:51.009Z,977.07
2023-03-18T18:21:50.930Z,977.07
2023-03-18T18:22:51.035Z,977.08
2023-03-18T18:23:50.908Z,977.05
2023-03-18T18:24:51.087Z,977.05
2023-03-18T18:25:50.881Z,977.01
2023-03-18T18:26:51.083Z,977.05
2023-03-18T18:27:50.969Z,977.07
2023-03-18T18:28:51.034Z,977.05
2023-03-18T18:29:50.816Z,977.12
2023-03-18T18:30:51.025Z,977.09
2023-03-18T18:31:50.945Z,977.13
2023-03-18T18:32:51.135Z,977.15
2023-03-18T18:33:50.800Z,977.13
2023-03-18T18:34:51.020Z,977.13
2023-03-18T18:35:50.864Z,977.10
2023-03-18T18:36:50.920Z,977.15
2023-03-18T18:37:50.819Z,977.10
2023-03-18T18:38:50.719Z,977.16
2023-03-18T18:39:50.849Z,977.10
2023-03-18T18:40:50.670Z,977.09
2023-03-18T18:41:50.650Z,977.10
2023-03-18T18:42:50.997Z,977.11
2023-03-18T18:43:50.614Z,977.10
2023-03-18T18:44:50.676Z,977.06
2023-03-18T18:45:50.610Z,977.01
2023-03-18T18:46:50.766Z,976.97
2023-03-18T18:47:50.815Z,976.94
2023-03-18T18:48:50.750Z,976.97
2023-03-18T18:49:50.818Z,976.94
2023-03-18T18:50:50.635Z,976.96
2023-03-18T18:51:50.612Z,977.06
2023-03-18T18:52:50.490Z,977.02
2023-03-18T18:53:50.534Z,977.09
2023-03-18T18:54:50.568Z,977.10
2023-03-18T18:55:50.537Z,977.11
2023-03-18T18:56:50.450Z,977.05
2023-03-18T18:57:50.499Z,977.07
2023-03-18T18:58:50.670Z,977.09
2023-03-18T18:59:50.523Z,977.12
2023-03-18T19:00:50.549Z,977.11
2023-03-18T19:01:50.540Z,977.06
2023-03-18T19:02:50.365Z,977.00
2023-03-18T19:03:50.608Z,977.05
2023-03-18T19:04:50.680Z,976.97
2023-03-18T19:05:50.326Z,976.97
2023-03-18T19:06:50.408Z,976.99
2023-03-18T19:07:50.338Z,976.93
2023-03-18T19:08:50.344Z,976.92
2023-03-18T19:09:50.531Z,976.93
2023-03-18T19:10:50.332Z,976.92
2023-03-18T19:11:50.771Z,976.94
2023-03-18T19:12:50.378Z,976.96
2023-03-18T19:13:50.291Z,977.02
2023-03-18T19:14:50.332Z,977.02
2023-03-18T19:15:50.530Z,977.03
2023-03-18T19:16:50.227Z,977.04
2023-03-18T19:17:50.277Z,977.07
2023-03-18T19:18:50.170Z,977.05
2023-03-18T19:19:50.217Z,976.99
2023-03-18T19:20:50.107Z,976.98
2023-03-18T19:21:50.177Z,977.01
2023-03-18T19:22:50.162Z,977.02
2023-03-18T19:23:50.207Z,977.00
2023-03-18T19:24:50.110Z,977.08
2023-03-18T19:25:50.236Z,977.06
2023-03-18T19:26:50.352Z,977.06
2023-03-18T19:27:50.206Z,977.07
2023-03-18T19:28:59.453Z,977.07
2023-03-18T19:29:50.192Z,977.04
2023-03-18T19:30:49.991Z,977.05
2023-03-18T19:31:50.098Z,977.03
2023-03-18T19:32:50.034Z,976.98
2023-03-18T19:33:50.266Z,976.96
2023-03-18T19:34:50.031Z,976.93
2023-03-18T19:35:50.000Z,977.01
2023-03-18T19:36:49.938Z,977.00
2023-03-18T19:37:49.954Z,976.94
2023-03-18T19:38:49.936Z,976.97
2023-03-18T19:39:49.880Z,976.93
2023-03-18T19:40:50.006Z,976.91
2023-03-18T19:41:49.861Z,976.92
2023-03-18T19:42:49.852Z,976.85
2023-03-18T19:43:49.868Z,976.85
2023-03-18T19:44:49.890Z,976.86
2023-03-18T19:45:51.889Z,976.84
2023-03-18T19:46:50.016Z,976.84
2023-03-18T19:47:49.916Z,976.80
2023-03-18T19:48:49.998Z,976.80
2023-03-18T19:49:49.819Z,976.71
2023-03-18T19:50:49.714Z,976.81
2023-03-18T19:51:49.749Z,976.78
2023-03-18T19:52:49.715Z,976.76
2023-03-18T19:53:49.682Z,976.82
2023-03-18T19:54:49.765Z,976.83
2023-03-18T19:55:49.872Z,976.84
2023-03-18T19:56:49.673Z,976.88
2023-03-18T19:57:49.678Z,976.91
2023-03-18T19:58:49.763Z,976.87
2023-03-18T19:59:49.669Z,976.90
2023-03-18T20:00:49.739Z,976.83
2023-03-18T20:01:49.579Z,976.85
2023-03-18T20:02:49.698Z,976.85
2023-03-18T20:03:49.632Z,976.86
2023-03-18T20:04:49.534Z,976.87
2023-03-18T20:05:49.628Z,976.84
2023-03-18T20:06:49.664Z,976.85
2023-03-18T20:07:49.567Z,976.81
2023-03-18T20:08:49.692Z,976.80
2023-03-18T20:09:49.595Z,976.77
2023-03-18T20:10:49.683Z,976.80
2023-03-18T20:11:49.604Z,976.83
2023-03-18T20:12:49.407Z,976.82
2023-03-18T20:13:49.521Z,976.79
2023-03-18T20:14:49.408Z,976.87
2023-03-18T20:15:49.531Z,976.84
2023-03-18T20:16:49.484Z,976.89
2023-03-18T20:17:49.647Z,976.88
2023-03-18T20:18:49.389Z,976.89
2023-03-18T20:19:49.315Z,976.90
2023-03-18T20:20:49.415Z,976.87
2023-03-18T20:21:49.519Z,976.89
2023-03-18T20:22:49.456Z,976.89
2023-03-18T20:23:49.295Z,976.91
2023-03-18T20:24:49.389Z,976.93
2023-03-18T20:25:49.553Z,976.92
2023-03-18T20:26:49.431Z,976.95
2023-03-18T20:27:49.228Z,976.95
2023-03-18T20:28:49.501Z,977.00
2023-03-18T20:29:49.231Z,977.01
2023-03-18T20:30:49.177Z,977.06
2023-03-18T20:31:49.258Z,977.10
2023-03-18T20:32:49.450Z,977.08
2023-03-18T20:33:49.202Z,977.10
2023-03-18T20:34:49.214Z,977.04
2023-03-18T20:35:49.211Z,977.08
2023-03-18T20:36:49.110Z,977.05
2023-03-18T20:37:49.197Z,977.07
2023-03-18T20:38:49.079Z,977.06
2023-03-18T20:39:49.302Z,977.03
2023-03-18T20:40:49.067Z,977.02
2023-03-18T20:41:49.037Z,977.06
2023-03-18T20:42:49.065Z,977.08
2023-03-18T20:43:49.215Z,977.04
2023-03-18T20:44:49.043Z,977.07
2023-03-18T20:45:49.120Z,977.00
2023-03-18T20:46:49.070Z,977.10
2023-03-18T20:47:48.920Z,977.06
2023-03-18T20:48:49.138Z,977.13
2023-03-18T20:49:48.942Z,977.05
2023-03-18T20:50:49.073Z,977.06
2023-03-18T20:51:49.005Z,977.09
2023-03-18T20:52:48.893Z,977.05
2023-03-18T20:53:48.877Z,977.09
2023-03-18T20:54:48.903Z,976.99
2023-03-18T20:55:48.882Z,976.99
2023-03-18T20:56:49.129Z,976.97
2023-03-18T20:57:48.968Z,977.04
2023-03-18T20:58:48.863Z,977.02
2023-03-18T20:59:48.898Z,977.01
2023-03-18T21:00:48.829Z,977.05
2023-03-18T21:01:48.879Z,977.04
2023-03-18T21:02:48.829Z,977.05
2023-03-18T21:03:48.801Z,977.09
2023-03-18T21:04:48.761Z,977.09
2023-03-18T21:05:48.892Z,977.12
2023-03-18T21:06:48.744Z,977.06
2023-03-18T21:07:49.009Z,977.10
2023-03-18T21:08:48.693Z,977.10
2023-03-18T21:09:48.926Z,977.13
2023-03-18T21:10:48.737Z,977.12
2023-03-18T21:11:48.662Z,977.13
2023-03-18T21:12:48.823Z,977.16
2023-03-18T21:13:48.628Z,977.12
2023-03-18T21:14:48.763Z,977.12
2023-03-18T21:15:48.598Z,977.14
2023-03-18T21:16:48.612Z,977.18
2023-03-18T21:17:48.561Z,977.20
2023-03-18T21:18:48.877Z,977.20
2023-03-18T21:19:48.470Z,977.19
2023-03-18T21:20:48.527Z,977.23
2023-03-18T21:21:48.528Z,977.34
2023-03-18T21:22:48.522Z,977.29
2023-03-18T21:23:48.545Z,977.32
2023-03-18T21:24:48.585Z,977.34
2023-03-18T21:25:48.845Z,977.34
2023-03-18T21:27:01.576Z,977.34
2023-03-18T21:27:48.394Z,977.34
2023-03-18T21:28:49.232Z,977.34
2023-03-18T21:29:48.756Z,977.34
2023-03-18T21:30:48.388Z,977.36
2023-03-18T21:31:48.388Z,977.35
2023-03-18T21:32:48.465Z,977.36
2023-03-18T21:33:48.575Z,977.31
2023-03-18T21:34:48.484Z,977.36
2023-03-18T21:35:48.356Z,977.25
2023-03-18T21:36:48.405Z,977.27
2023-03-18T21:37:48.257Z,977.32
2023-03-18T21:38:48.273Z,977.30
2023-03-18T21:39:48.338Z,977.28
2023-03-18T21:40:48.411Z,977.26
2023-03-18T21:41:48.320Z,977.26
2023-03-18T21:42:48.389Z,977.18
2023-03-18T21:43:48.250Z,977.17
2023-03-18T21:44:48.199Z,977.15
2023-03-18T21:45:48.278Z,977.16
2023-03-18T21:46:48.404Z,977.15
2023-03-18T21:47:48.155Z,977.06
2023-03-18T21:48:48.172Z,977.07
2023-03-18T21:49:48.264Z,977.14
2023-03-18T21:50:48.132Z,977.08
2023-03-18T21:51:48.344Z,977.09
2023-03-18T21:52:48.083Z,977.03
2023-03-18T21:53:48.058Z,976.97
2023-03-18T21:54:48.105Z,976.96
2023-03-18T21:55:48.271Z,976.97
2023-03-18T21:56:48.108Z,976.91
2023-03-18T21:57:49.272Z,976.93
2023-03-18T21:58:48.111Z,976.92
2023-03-18T21:59:47.984Z,976.89
2023-03-18T22:00:48.106Z,976.90
2023-03-18T22:01:48.318Z,976.90
2023-03-18T22:02:48.019Z,976.88
2023-03-18T22:03:48.140Z,976.88
2023-03-18T22:04:48.091Z,976.90
2023-03-18T22:05:47.965Z,976.85
2023-03-18T22:06:47.911Z,976.90
2023-03-18T22:07:47.989Z,976.86
2023-03-18T22:08:47.884Z,976.86
2023-03-18T22:09:48.026Z,976.91
2023-03-18T22:10:48.130Z,976.93
2023-03-18T22:11:47.936Z,976.92
2023-03-18T22:12:48.154Z,976.90
2023-03-18T22:13:47.924Z,976.89
2023-03-18T22:14:47.782Z,976.94
2023-03-18T22:15:48.332Z,976.92
2023-03-18T22:16:47.770Z,976.85
2023-03-18T22:17:47.966Z,976.89
2023-03-18T22:18:47.764Z,976.91
2023-03-18T22:19:47.953Z,976.86
2023-03-18T22:20:47.777Z,976.87
2023-03-18T22:21:48.078Z,976.86
2023-03-18T22:22:47.780Z,976.85
2023-03-18T22:23:47.684Z,976.88
2023-03-18T22:24:47.675Z,976.82
2023-03-18T22:25:47.723Z,976.86
2023-03-18T22:26:47.772Z,976.82
2023-03-18T22:27:47.716Z,976.86
2023-03-18T22:28:47.794Z,976.89
2023-03-18T22:29:47.627Z,976.87
2023-03-18T22:30:47.782Z,976.89
2023-03-18T22:31:47.711Z,976.88
2023-03-18T22:32:47.927Z,976.93
2023-03-18T22:33:47.777Z,976.91
2023-03-18T22:34:47.785Z,976.91
2023-03-18T22:35:47.681Z,976.84
2023-03-18T22:36:47.507Z,976.90
2023-03-18T22:37:47.650Z,976.94
2023-03-18T22:38:47.446Z,976.92
2023-03-18T22:39:47.556Z,976.87
2023-03-18T22:40:47.468Z,976.91
2023-03-18T22:41:47.453Z,976.92
2023-03-18T22:42:47.452Z,976.92
2023-03-18T22:43:47.653Z,976.93
2023-03-18T22:44:47.431Z,976.91
2023-03-18T22:45:47.628Z,976.91
2023-03-18T22:46:47.503Z,976.94
2023-03-18T22:47:47.361Z,976.91
2023-03-18T22:48:47.461Z,976.95
2023-03-18T22:49:47.651Z,976.99
2023-03-18T22:50:47.531Z,976.98
2023-03-18T22:51:47.321Z,977.00
2023-03-18T22:52:47.452Z,977.03
2023-03-18T22:53:47.301Z,977.03
2023-03-18T22:54:47.327Z,977.03
2023-03-18T22:55:47.249Z,977.04
2023-03-18T22:56:47.255Z,977.01
2023-03-18T22:57:47.350Z,977.07
2023-03-18T22:58:47.196Z,977.06
2023-03-18T22:59:47.320Z,977.03
2023-03-18T23:00:47.176Z,977.09
2023-03-18T23:01:47.197Z,977.07
2023-03-18T23:02:47.240Z,977.11
2023-03-18T23:03:47.152Z,977.13
2023-03-18T23:04:47.117Z,977.13
2023-03-18T23:05:47.113Z,977.18
2023-03-18T23:06:47.165Z,977.18
2023-03-18T23:07:47.100Z,977.19
2023-03-18T23:08:47.219Z,977.23
2023-03-18T23:09:56.161Z,977.24
2023-03-18T23:10:47.119Z,977.23